CPX209 Details

Departure: Los Angeles International Airport (KLAX) at 1100 UTC
Arrival: Miami International Airport (KMIA) at 1545 UTC
Route: DOTSS2 CNERY BLH J65 KOFFA J169 TFD J50 ELP J2 JCT J86 LEV Q102 BAGGS SSCOT5


Current Weather Information
KLAX 212253Z 25021G30KT 10SM FEW025 FEW060 SCT250 18/09 A2982 RMK AO2 PK WND 25030/2246 SLPNO T01830094
KMIA 212253Z 12012KT 10SM FEW040 FEW060 FEW250 29/20 A2993 RMK AO2 SLP136 T02890200